Terminal Aerodrome Forecast
Issued by NWS

Home | Current Version | Previous Version | Text Only | Print | Product List | Glossary On
Versions: 1 2 3 4 5 6 7 8 9 10 11 12 13 14 15 16 17 18
000
FTUS46 KSGX 212103 AAA
TAFONT
TAF AMD
KONT 212103Z 2121/2224 25009KT P6SM BKN050
     FM220200 VRB06KT P6SM SCT035 SCT050
     FM221200 02012KT P6SM VCSH SCT015 BKN035 OVC050
     FM221500 05012KT 4SM -RA BR SCT010 BKN025 OVC040
     FM221800 05014G21KT 2SM RA BR SCT005 BKN015 OVC035
      TEMPO 2220/2224 1SM +RA BR BKN005=

USA.gov is the U.S. government's official web portal to all federal, state and local government web resources and services.